Minneapolis, MN

5:58 AM CST on February 01, 2015 (GMT -0600)
East Bloomington | Change Station
CLOSE
Current Station
Personal Weather Station
Location: Bloomington, MN
Elevation: 840 ft
Nearby Weather Stations

Elev 840 ft 44.84 °N, 93.25 °W | Updated 8 seconds ago

Snow
Snow
14.6 °F
Feels Like 5 °F
N
7.0
Wind Variable Wind from NNE
Gusts 10.0 mph

Today
High -- | Low -- °F
--% Chance of Precip.
Yesterday
High -- | Low -- °F
Precip. -- in
7:32 AM 5:21 PM
Waxing Gibbous, 94% visible
Pressure 30.23 in
Visibility 2.0 miles
Clouds Overcast 2100 ft
Windchill 5 °F
Dew Point 11 °F
Humidity 86%
Rainfall 0.00 in
Snow Depth Not available.
UV 0 out of 12
Pollen .10 out of 12
Air Quality Not available.
Flu Activity Not available.
METAR KMSP 011053Z 04016G21KT 2SM -SN OVC021 M09/M13 A3018 RMK AO2 SLP235 P0000 T10941133

More Conditions Fewer Conditions

Pressure 30.23 in
Visibility 2.0 miles
Clouds Overcast 2100 ft
Windchill 5 °F
Dew Point 11 °F
Humidity 86%
Rainfall 0.00 in
Snow Depth Not available.
UV 0 out of 12
Pollen .10 out of 12
Air Quality Not available.
Flu Activity Not available.
METAR KMSP 011053Z 04016G21KT 2SM -SN OVC021 M09/M13 A3018 RMK AO2 SLP235 P0000 T10941133

More Conditions Fewer Conditions

10-Day Weather Forecast

Almanac

Astronomy

Feb. 01, 2015 Rise Set
Actual Time
Civil Twilight
Nautical Twilight
Astronomical Twilight
Moon
Length of Visible Light
Length of Day
Tomorrow will be .
, % of the Moon is Illuminated

Today's Extremes

State Highs State Lows

Community

WunderPhotos

Upload Photos

1,792,346 photos uploaded!

WunderBlogs® & News

Nearby

Air Quality

  Air Quality AQ Index Pollutant
Not available.

Snow Depth

Station Depth Elevation

Earthquake Activity

City Distance Mag. Time & Date
Minimum magnitude displayed is 2.5.

Coastal Water Temperatures

Place Temperature

Nearby Weather Stations